KPNE

Northeast Philadelphia Airport

Philadelphia, Pennsylvania, USA
METAR KPNE 231054Z AUTO 35003KT 4SM -RA BR BKN015 OVC020 09/08 A2979 RMK AO2 SLP088 P0009 T00940078
Observed Flight Rules
Jan-23 @ 10:54 UTC (an hour ago) Marginal Visual Flight Rules
Wind Visibility Clouds Conditions
350° at 3 knots 4 miles
  • Broken at 1,500' AGL
  • Overcast at 2,000' AGL
  • Light Rain
  • Mist
Temperatures Readings Precipitation
Current 9°C / 48°F
Dewpoint 8°C / 46°F
Humidity 94%
Altimeter 29.79" Hg
Pressure 1008.8 hPa
Elevation 28
Current Rain 0.09
METAR KPNE 231054Z AUTO 35003KT 4SM -RA BR BKN015 OVC020 09/08 A2979 RMK AO2 SLP088 P0009 T00940078
Observed Flight Rules
Jan-23 @ 10:54 UTC
(an hour ago)
MVFR
Wind Visibility
350° at 3 knots 4 miles
Clouds
  • Broken at 1,500' AGL
  • Overcast at 2,000' AGL
Conditions
  • Light Rain
  • Mist
Temperature Dewpoint
9°C / 48°F 8°C / 46°F
Humidity Altimeter Pressure
94% 29.79" Hg 1008.8 hPa
Current Rain
0.09